Time;durP1;ratioP1;P1;durP2;ratioP2;P2;SDS_P1;SDS_P2;PMS_P1;PMS_P2;Temp;Humidity;BMP_temperature;BMP_pressure;BME280_temperature;BME280_humidity;BME280_pressure;Samples;Min_cycle;Max_cycle;Signal;HPM_P1;HPM_P2
2022/07/11 00:00:45;;;;;;;0.52;0.45;;;24.80;50.60;;;;;;6300909;28;20063;-43
2022/07/11 00:03:46;;;;;;;0.35;0.30;;;24.80;50.70;;;;;;6298557;28;20935;-46
2022/07/11 00:06:49;;;;;;;0.30;0.30;;;24.80;50.70;;;;;;6297799;28;20043;-47
2022/07/11 00:09:53;;;;;;;0.40;0.40;;;24.80;50.70;;;;;;6297521;28;20048;-46
2022/07/11 00:12:55;;;;;;;0.40;0.20;;;24.80;50.70;;;;;;6281288;28;20519;-44
2022/07/11 00:15:57;;;;;;;0.30;0.30;;;24.80;50.80;;;;;;6299255;28;20044;-45
2022/07/11 00:18:59;;;;;;;0.38;0.30;;;24.80;50.80;;;;;;6292927;28;20865;-45
2022/07/11 00:22:00;;;;;;;0.30;0.30;;;24.70;50.80;;;;;;6299563;28;20977;-44
2022/07/11 00:25:02;;;;;;;0.65;0.40;;;24.70;50.90;;;;;;6304573;28;20048;-43
2022/07/11 00:28:04;;;;;;;0.20;0.20;;;24.80;50.90;;;;;;6288563;28;20158;-43
2022/07/11 00:31:10;;;;;;;0.40;0.22;;;24.80;50.90;;;;;;6291145;28;20044;-48
2022/07/11 00:34:12;;;;;;;0.35;0.20;;;24.70;50.90;;;;;;6287261;28;20089;-43
2022/07/11 00:37:13;;;;;;;0.40;0.28;;;24.70;50.90;;;;;;6293770;28;20046;-49
2022/07/11 00:40:15;;;;;;;0.22;0.20;;;24.70;50.90;;;;;;6291047;28;20881;-44
2022/07/11 00:43:19;;;;;;;0.35;0.28;;;24.70;51.00;;;;;;6295080;28;20144;-42
2022/07/11 00:46:21;;;;;;;0.68;0.30;;;24.70;51.00;;;;;;6298945;28;20744;-45
2022/07/11 00:49:22;;;;;;;0.57;0.30;;;24.60;50.90;;;;;;6307403;28;20042;-44
2022/07/11 00:52:24;;;;;;;0.50;0.30;;;24.70;51.00;;;;;;6309099;28;20878;-43
2022/07/11 00:55:28;;;;;;;0.20;0.20;;;24.70;51.10;;;;;;6306846;28;20446;-44
2022/07/11 00:58:31;;;;;;;0.30;0.30;;;24.60;51.00;;;;;;6305779;28;21059;-43
2022/07/11 01:01:35;;;;;;;0.38;0.30;;;24.50;51.00;;;;;;6306056;28;20082;-43
2022/07/11 01:04:37;;;;;;;0.30;0.20;;;24.60;51.00;;;;;;6305557;28;20883;-48
2022/07/11 01:07:39;;;;;;;0.22;0.20;;;24.50;51.00;;;;;;6298144;28;20220;-43
2022/07/11 01:10:44;;;;;;;0.40;0.40;;;24.60;51.10;;;;;;6288500;28;20063;-46
2022/07/11 01:13:46;;;;;;;0.45;0.30;;;24.50;51.10;;;;;;6292608;28;20070;-49
2022/07/11 01:16:51;;;;;;;0.40;0.40;;;24.60;51.20;;;;;;6294448;28;20847;-45
2022/07/11 01:19:52;;;;;;;0.28;0.20;;;24.50;51.10;;;;;;6286678;28;20048;-43
2022/07/11 01:22:56;;;;;;;0.25;0.20;;;24.40;51.00;;;;;;6280865;28;20075;-43
2022/07/11 01:25:58;;;;;;;0.30;0.30;;;24.50;51.20;;;;;;6282080;28;20653;-44
2022/07/11 01:29:05;;;;;;;0.20;0.20;;;24.40;51.20;;;;;;6280661;28;20076;-45
2022/07/11 01:32:08;;;;;;;0.22;0.22;;;24.50;51.20;;;;;;6259341;28;20319;-46
2022/07/11 01:35:09;;;;;;;0.40;0.30;;;24.50;51.80;;;;;;6281784;28;20474;-45
2022/07/11 01:38:11;;;;;;;0.35;0.30;;;24.50;51.30;;;;;;6284083;28;20043;-44
2022/07/11 01:41:13;;;;;;;0.20;0.20;;;24.50;51.20;;;;;;6279811;28;20547;-45
2022/07/11 01:44:15;;;;;;;0.30;0.30;;;24.50;51.30;;;;;;6278032;28;20090;-42
2022/07/11 01:47:16;;;;;;;0.30;0.20;;;24.50;51.30;;;;;;6279931;28;20078;-46
2022/07/11 01:50:18;;;;;;;0.20;0.20;;;24.50;51.30;;;;;;6282251;28;20044;-43
2022/07/11 01:53:20;;;;;;;0.20;0.20;;;24.50;51.40;;;;;;6283463;28;20305;-43
2022/07/11 01:56:22;;;;;;;0.25;0.25;;;24.40;51.30;;;;;;6278429;27;20130;-43
2022/07/11 01:59:33;;;;;;;0.40;0.28;;;24.40;51.40;;;;;;6280183;28;20066;-45
2022/07/11 02:02:34;;;;;;;0.30;0.28;;;24.40;51.40;;;;;;6292365;28;20158;-42
2022/07/11 02:05:40;;;;;;;0.50;0.30;;;24.40;51.30;;;;;;6295293;28;20051;-45
2022/07/11 02:08:42;;;;;;;0.40;0.40;;;24.40;51.40;;;;;;6297648;28;20261;-44
2022/07/11 02:11:44;;;;;;;0.40;0.20;;;24.40;51.40;;;;;;6287626;28;20051;-43
2022/07/11 02:14:46;;;;;;;0.40;0.30;;;24.40;51.40;;;;;;6280080;28;20059;-43
2022/07/11 02:17:47;;;;;;;0.20;0.20;;;24.40;51.40;;;;;;6274769;28;20237;-45
2022/07/11 02:20:49;;;;;;;0.38;0.30;;;24.30;51.40;;;;;;6282484;28;20272;-46
2022/07/11 02:23:50;;;;;;;0.20;0.20;;;24.30;51.50;;;;;;6282715;28;20158;-43
2022/07/11 02:26:53;;;;;;;0.30;0.30;;;24.30;51.50;;;;;;6282232;28;20070;-45
2022/07/11 02:29:54;;;;;;;0.30;0.30;;;24.30;51.60;;;;;;6289135;28;20143;-48
2022/07/11 02:33:00;;;;;;;0.30;0.22;;;24.30;51.50;;;;;;6289079;28;20266;-45
2022/07/11 02:36:05;;;;;;;0.30;0.20;;;24.30;51.50;;;;;;6291159;28;20214;-44
2022/07/11 02:39:06;;;;;;;0.40;0.30;;;24.30;51.50;;;;;;6294921;28;20078;-44
2022/07/11 02:42:11;;;;;;;0.30;0.30;;;24.30;51.60;;;;;;6297274;28;20055;-45
2022/07/11 02:45:13;;;;;;;0.40;0.20;;;24.20;51.60;;;;;;6301696;28;20070;-45
2022/07/11 02:48:15;;;;;;;0.50;0.40;;;24.20;51.60;;;;;;6299604;28;20210;-44
2022/07/11 02:51:16;;;;;;;0.20;0.20;;;24.20;51.70;;;;;;6298441;28;20050;-45
2022/07/11 02:54:18;;;;;;;0.25;0.22;;;24.30;51.70;;;;;;6270149;28;20083;-44
2022/07/11 02:57:20;;;;;;;0.32;0.20;;;24.20;51.70;;;;;;6298969;28;20035;-45
2022/07/11 03:00:21;;;;;;;0.20;0.20;;;24.30;51.80;;;;;;6273161;28;20083;-44
2022/07/11 03:03:23;;;;;;;0.30;0.30;;;24.20;51.80;;;;;;6283075;28;20043;-43
2022/07/11 03:06:28;;;;;;;0.45;0.35;;;24.30;51.90;;;;;;6279822;28;20440;-46
2022/07/11 03:09:29;;;;;;;0.30;0.28;;;24.10;51.80;;;;;;6281872;28;20604;-42
2022/07/11 03:12:32;;;;;;;0.20;0.20;;;24.20;51.80;;;;;;6284541;28;20070;-44
2022/07/11 03:15:33;;;;;;;0.22;0.20;;;24.20;51.90;;;;;;6284132;28;20166;-43
2022/07/11 03:18:35;;;;;;;0.20;0.20;;;24.10;51.80;;;;;;6284049;28;20677;-42
2022/07/11 03:21:36;;;;;;;0.30;0.28;;;24.00;51.80;;;;;;6290105;28;20173;-44
2022/07/11 03:24:38;;;;;;;0.40;0.40;;;24.10;51.90;;;;;;6296378;28;20071;-45
2022/07/11 03:27:40;;;;;;;0.40;0.40;;;24.10;51.90;;;;;;6288388;28;20763;-45
2022/07/11 03:30:41;;;;;;;0.30;0.30;;;24.00;51.90;;;;;;6280065;28;20043;-44
2022/07/11 03:33:43;;;;;;;0.30;0.30;;;24.00;51.90;;;;;;6279863;28;20035;-45
2022/07/11 03:36:49;;;;;;;0.40;0.30;;;24.10;52.00;;;;;;6283080;28;20043;-44
2022/07/11 03:39:50;;;;;;;0.30;0.30;;;24.20;52.10;;;;;;6280267;28;20108;-46
2022/07/11 03:42:53;;;;;;;0.40;0.40;;;24.00;52.00;;;;;;6286977;28;20804;-45
2022/07/11 03:45:54;;;;;;;0.32;0.30;;;24.10;52.10;;;;;;6283569;28;20338;-47
2022/07/11 03:48:56;;;;;;;0.40;0.38;;;24.10;52.10;;;;;;6293839;28;20478;-45
2022/07/11 03:51:57;;;;;;;0.60;0.47;;;24.00;52.10;;;;;;6294786;28;20911;-45
2022/07/11 03:54:59;;;;;;;0.50;0.32;;;24.00;52.10;;;;;;6280601;28;20148;-43
2022/07/11 03:58:01;;;;;;;0.30;0.30;;;24.10;52.10;;;;;;6276221;28;20051;-45
2022/07/11 04:01:03;;;;;;;0.28;0.28;;;24.00;52.10;;;;;;6278595;28;20078;-46
2022/07/11 04:04:08;;;;;;;0.40;0.40;;;24.00;52.10;;;;;;6283428;28;20081;-45
2022/07/11 04:07:18;;;;;;;0.30;0.30;;;24.00;52.00;;;;;;6280715;28;20125;-43
2022/07/11 04:10:19;;;;;;;0.30;0.30;;;24.10;52.10;;;;;;6274352;28;20344;-45
2022/07/11 04:13:22;;;;;;;0.30;0.30;;;24.00;52.10;;;;;;6289327;28;20153;-43
2022/07/11 04:16:23;;;;;;;0.50;0.32;;;23.90;52.00;;;;;;6284916;28;20047;-45
2022/07/11 04:19:25;;;;;;;0.30;0.30;;;23.90;52.00;;;;;;6286091;28;20437;-44
2022/07/11 04:22:26;;;;;;;0.32;0.20;;;23.90;52.00;;;;;;6287835;28;20150;-45
2022/07/11 04:25:28;;;;;;;0.40;0.20;;;23.90;52.00;;;;;;6287036;28;20155;-44
2022/07/11 04:28:30;;;;;;;0.38;0.20;;;24.00;52.00;;;;;;6272202;28;20073;-45
2022/07/11 04:31:32;;;;;;;0.30;0.20;;;23.80;51.90;;;;;;6262035;28;20078;-44
2022/07/11 04:34:37;;;;;;;0.20;0.20;;;23.90;51.90;;;;;;6268665;28;20154;-44
2022/07/11 04:37:38;;;;;;;0.30;0.30;;;23.90;51.90;;;;;;6277737;28;20044;-45
2022/07/11 04:40:40;;;;;;;0.70;0.40;;;23.80;51.80;;;;;;6275234;28;20410;-46
2022/07/11 04:43:42;;;;;;;0.40;0.40;;;23.80;51.80;;;;;;6275760;28;20212;-43
2022/07/11 04:46:44;;;;;;;0.45;0.30;;;23.90;51.90;;;;;;6282549;28;20505;-46
2022/07/11 04:49:46;;;;;;;0.30;0.30;;;24.00;51.90;;;;;;6283204;28;20279;-45
2022/07/11 04:52:48;;;;;;;0.25;0.25;;;23.90;51.90;;;;;;6290108;28;20135;-43
2022/07/11 04:55:49;;;;;;;0.47;0.47;;;23.90;51.90;;;;;;6296088;28;20046;-44
2022/07/11 04:58:51;;;;;;;0.38;0.30;;;24.10;52.00;;;;;;6287392;28;20814;-44
2022/07/11 05:01:53;;;;;;;0.32;0.30;;;23.90;51.80;;;;;;6290485;28;20071;-43
2022/07/11 05:04:55;;;;;;;0.20;0.20;;;23.90;51.80;;;;;;6281495;28;20614;-45
2022/07/11 05:07:57;;;;;;;0.30;0.30;;;23.90;51.80;;;;;;6290074;28;20545;-46
2022/07/11 05:10:59;;;;;;;0.30;0.30;;;24.00;51.90;;;;;;6286824;28;20438;-44
2022/07/11 05:14:01;;;;;;;0.30;0.30;;;24.00;51.90;;;;;;6286431;28;20598;-42
2022/07/11 05:17:03;;;;;;;0.22;0.22;;;23.90;51.90;;;;;;6284437;28;20046;-46
2022/07/11 05:20:05;;;;;;;0.25;0.25;;;23.90;51.90;;;;;;6289496;28;20261;-42
2022/07/11 05:23:07;;;;;;;0.77;0.32;;;23.90;51.90;;;;;;6293577;28;20040;-47
2022/07/11 05:26:09;;;;;;;0.50;0.40;;;23.90;52.00;;;;;;6286371;28;20869;-44
2022/07/11 05:29:19;;;;;;;0.40;0.32;;;23.90;52.00;;;;;;6277900;28;20049;-45
2022/07/11 05:32:20;;;;;;;0.30;0.30;;;23.90;52.10;;;;;;6272894;27;20074;-43
2022/07/11 05:35:22;;;;;;;0.28;0.28;;;24.10;52.10;;;;;;6286402;28;20039;-48
2022/07/11 05:38:27;;;;;;;0.38;0.28;;;23.80;51.90;;;;;;6282644;28;21416;-42
2022/07/11 05:41:28;;;;;;;0.40;0.40;;;23.70;51.90;;;;;;6286490;28;20339;-44
2022/07/11 05:44:31;;;;;;;0.30;0.30;;;24.20;52.10;;;;;;6278201;28;20047;-45
2022/07/11 05:47:32;;;;;;;0.38;0.30;;;24.00;52.10;;;;;;6258072;28;20043;-46
2022/07/11 05:50:34;;;;;;;0.28;0.28;;;23.90;51.90;;;;;;6270295;28;20043;-45
2022/07/11 05:53:36;;;;;;;0.40;0.30;;;24.00;51.90;;;;;;6265920;28;20171;-45
2022/07/11 05:56:38;;;;;;;0.38;0.30;;;24.00;51.90;;;;;;6276009;28;20097;-45
2022/07/11 05:59:40;;;;;;;0.65;0.40;;;24.20;51.90;;;;;;6271263;28;20047;-44
2022/07/11 06:02:44;;;;;;;0.40;0.40;;;24.00;51.80;;;;;;6265257;28;20825;-43
2022/07/11 06:05:46;;;;;;;1.02;0.30;;;24.00;51.80;;;;;;6249185;28;20121;-43
2022/07/11 06:08:47;;;;;;;1.27;0.30;;;24.00;51.80;;;;;;6275220;28;20051;-47
2022/07/11 06:11:49;;;;;;;1.17;0.60;;;24.00;51.80;;;;;;6279516;28;20047;-42
2022/07/11 06:14:51;;;;;;;0.85;0.50;;;24.00;52.00;;;;;;6273813;28;20151;-46
2022/07/11 06:17:53;;;;;;;3.67;0.95;;;24.00;52.00;;;;;;6268200;28;20046;-44
2022/07/11 06:20:55;;;;;;;1.02;0.45;;;24.00;52.00;;;;;;6253352;28;20060;-46
2022/07/11 06:23:56;;;;;;;1.20;0.55;;;24.00;52.00;;;;;;6261898;28;20047;-45
2022/07/11 06:27:00;;;;;;;2.92;0.65;;;24.00;52.00;;;;;;6258423;28;20154;-44
2022/07/11 06:30:02;;;;;;;0.90;0.40;;;24.10;52.00;;;;;;6257033;28;21035;-43
2022/07/11 06:33:04;;;;;;;2.33;1.05;;;24.10;52.00;;;;;;6253421;28;20169;-44
2022/07/11 06:36:06;;;;;;;1.75;0.70;;;24.10;52.00;;;;;;6250437;28;20116;-44
2022/07/11 06:39:08;;;;;;;2.05;0.90;;;24.10;52.10;;;;;;6243492;28;20048;-44
2022/07/11 06:42:10;;;;;;;1.17;0.60;;;24.10;52.20;;;;;;6237856;28;20036;-43
2022/07/11 06:45:12;;;;;;;2.00;0.70;;;24.10;52.30;;;;;;6227214;28;20059;-46
2022/07/11 06:48:14;;;;;;;1.67;0.73;;;24.10;52.10;;;;;;6231128;28;20133;-48
2022/07/11 06:51:16;;;;;;;0.93;0.63;;;24.20;52.10;;;;;;6212648;28;20044;-47
2022/07/11 06:54:18;;;;;;;0.65;0.50;;;24.20;52.00;;;;;;6199581;28;20109;-43
2022/07/11 06:57:19;;;;;;;1.45;0.60;;;24.20;51.90;;;;;;6204231;28;20071;-43
2022/07/11 07:00:21;;;;;;;1.38;0.40;;;24.30;51.80;;;;;;6189860;28;20044;-43
2022/07/11 07:03:23;;;;;;;0.68;0.50;;;24.30;51.80;;;;;;6177940;28;20078;-42
2022/07/11 07:06:25;;;;;;;0.80;0.60;;;24.40;51.80;;;;;;6178634;28;20055;-43
2022/07/11 07:09:26;;;;;;;0.38;0.35;;;24.40;51.70;;;;;;6186473;28;20035;-43
2022/07/11 07:12:28;;;;;;;0.52;0.40;;;24.40;51.50;;;;;;6166114;28;20032;-43
2022/07/11 07:15:30;;;;;;;1.75;0.40;;;24.50;51.30;;;;;;6166860;28;20040;-44
2022/07/11 07:18:32;;;;;;;1.30;0.50;;;24.40;51.20;;;;;;6163695;28;20152;-43
2022/07/11 07:21:34;;;;;;;1.70;0.30;;;24.50;51.20;;;;;;6181229;28;20055;-48
2022/07/11 07:24:36;;;;;;;0.40;0.30;;;24.50;51.00;;;;;;6157146;28;20047;-46
2022/07/11 07:27:37;;;;;;;0.85;0.40;;;24.50;50.90;;;;;;6142800;28;20040;-43
2022/07/11 07:30:40;;;;;;;1.20;0.40;;;24.50;50.90;;;;;;6126783;28;20055;-43
2022/07/11 07:33:41;;;;;;;0.95;0.45;;;24.50;50.80;;;;;;6129494;27;20055;-45
2022/07/11 07:36:47;;;;;;;0.68;0.40;;;24.50;50.70;;;;;;6137300;28;20067;-42
2022/07/11 07:39:49;;;;;;;1.00;0.30;;;24.50;50.40;;;;;;6139098;28;21652;-44
2022/07/11 07:42:51;;;;;;;1.13;0.30;;;24.50;50.30;;;;;;6150668;28;20078;-44
2022/07/11 07:45:53;;;;;;;0.60;0.35;;;24.50;50.30;;;;;;6156320;28;20067;-46
2022/07/11 07:48:55;;;;;;;0.73;0.30;;;24.50;50.30;;;;;;6145271;28;20070;-43
2022/07/11 07:51:56;;;;;;;0.40;0.30;;;24.50;50.30;;;;;;6147141;28;20074;-43
2022/07/11 07:54:58;;;;;;;1.23;0.40;;;24.50;50.40;;;;;;6155600;28;20059;-44
2022/07/11 07:58:00;;;;;;;0.52;0.32;;;24.70;50.30;;;;;;6151328;27;23303;-45
2022/07/11 08:04:19;;;;;;;1.23;0.40;;;24.50;49.90;;;;;;6164204;28;20036;-45
2022/07/11 08:07:20;;;;;;;2.47;0.47;;;24.50;50.60;;;;;;6160003;28;21495;-43
2022/07/11 08:10:22;;;;;;;1.48;0.50;;;24.50;49.90;;;;;;6171091;28;20097;-45
2022/07/11 08:13:24;;;;;;;0.60;0.50;;;24.50;49.80;;;;;;6189471;28;20044;-43
2022/07/11 08:16:28;;;;;;;3.33;0.40;;;24.60;50.40;;;;;;6160087;28;20051;-45
2022/07/11 08:19:30;;;;;;;1.50;0.40;;;24.50;49.70;;;;;;6171592;28;20032;-44
2022/07/11 08:22:32;;;;;;;1.13;0.50;;;24.50;49.60;;;;;;6163780;28;20059;-46
2022/07/11 08:25:37;;;;;;;0.45;0.32;;;24.50;49.50;;;;;;6178927;28;21187;-44
2022/07/11 08:28:38;;;;;;;0.90;0.30;;;24.50;49.40;;;;;;6169684;28;20122;-43
2022/07/11 08:31:40;;;;;;;0.30;0.30;;;24.50;49.30;;;;;;6162004;28;20194;-43
2022/07/11 08:34:42;;;;;;;0.73;0.30;;;24.50;49.30;;;;;;6171471;28;20093;-44
2022/07/11 08:37:44;;;;;;;1.05;0.50;;;24.50;49.40;;;;;;6157636;28;20039;-47
2022/07/11 08:40:50;;;;;;;1.15;0.40;;;24.50;49.30;;;;;;6161515;28;20101;-43
2022/07/11 08:43:52;;;;;;;0.77;0.52;;;24.50;49.20;;;;;;6173515;28;20047;-44
2022/07/11 08:46:56;;;;;;;1.30;0.30;;;24.50;49.10;;;;;;6178049;28;20058;-44
2022/07/11 08:49:59;;;;;;;0.45;0.30;;;24.50;48.90;;;;;;6164710;28;20067;-45
2022/07/11 08:53:02;;;;;;;1.90;0.47;;;24.60;48.90;;;;;;6164106;28;20046;-45
2022/07/11 08:56:09;;;;;;;1.20;0.50;;;24.50;48.80;;;;;;6188587;28;20047;-43
2022/07/11 08:59:15;;;;;;;0.77;0.30;;;24.60;48.90;;;;;;6198047;27;20176;-43
2022/07/11 09:02:19;;;;;;;0.80;0.35;;;24.50;48.80;;;;;;6168177;28;20048;-44
2022/07/11 09:05:22;;;;;;;0.82;0.47;;;24.70;48.80;;;;;;6150363;28;20055;-45
2022/07/11 09:08:24;;;;;;;0.60;0.40;;;24.60;48.70;;;;;;6165249;28;20163;-44
2022/07/11 09:11:27;;;;;;;0.77;0.43;;;24.70;48.70;;;;;;6173056;28;20047;-43
2022/07/11 09:14:31;;;;;;;0.68;0.30;;;24.70;48.60;;;;;;6176250;28;20051;-43
2022/07/11 09:17:33;;;;;;;0.80;0.35;;;24.70;48.60;;;;;;6134519;28;20044;-45
2022/07/11 09:27:24;;;;;;;0.73;0.50;;;24.90;49.10;;;;;;6185210;28;20464;-44
2022/07/11 09:30:27;;;;;;;0.63;0.40;;;24.70;48.30;;;;;;6172186;28;20048;-43
2022/07/11 09:33:30;;;;;;;0.68;0.40;;;24.70;48.80;;;;;;6153391;28;20048;-44
2022/07/11 09:36:41;;;;;;;1.20;0.40;;;24.80;48.00;;;;;;6180520;28;20204;-42
2022/07/11 09:39:43;;;;;;;1.65;0.32;;;24.80;47.80;;;;;;6150653;28;20043;-42
2022/07/11 09:42:49;;;;;;;0.32;0.25;;;24.70;47.70;;;;;;6171495;28;20098;-43
2022/07/11 09:45:51;;;;;;;1.58;0.20;;;25.00;47.80;;;;;;6160996;28;20231;-42
2022/07/11 09:48:53;;;;;;;0.30;0.30;;;24.80;47.70;;;;;;6182912;27;20178;-44
2022/07/11 09:51:56;;;;;;;0.47;0.30;;;24.80;47.60;;;;;;6180179;28;21806;-42
2022/07/11 09:55:00;;;;;;;0.40;0.22;;;24.90;47.70;;;;;;6199879;28;20048;-41
2022/07/11 09:58:05;;;;;;;0.40;0.30;;;24.80;47.70;;;;;;6178213;28;22120;-41
2022/07/11 10:01:12;;;;;;;0.22;0.20;;;24.80;47.50;;;;;;6155430;28;20046;-42
2022/07/11 10:04:14;;;;;;;0.20;0.20;;;24.90;47.50;;;;;;6176165;28;20083;-41
2022/07/11 10:07:20;;;;;;;1.00;0.40;;;24.90;47.40;;;;;;6170608;28;20044;-46
2022/07/11 10:10:22;;;;;;;1.50;0.30;;;25.00;47.40;;;;;;6185500;28;20848;-44
2022/07/11 10:13:24;;;;;;;0.93;0.20;;;24.80;47.30;;;;;;6169456;28;20230;-43
2022/07/11 10:16:35;;;;;;;0.95;0.30;;;24.90;47.30;;;;;;6175899;28;20174;-42
2022/07/11 10:19:49;;;;;;;0.30;0.17;;;24.90;47.20;;;;;;6180013;28;20044;-44
2022/07/11 10:23:06;;;;;;;0.20;0.20;;;24.90;47.10;;;;;;6190529;28;20051;-43
2022/07/11 10:26:13;;;;;;;0.25;0.20;;;24.90;47.10;;;;;;6189438;28;20052;-41
2022/07/11 10:29:19;;;;;;;0.13;0.10;;;25.00;47.30;;;;;;6207697;28;20039;-43
2022/07/11 10:32:21;;;;;;;0.38;0.20;;;24.90;47.10;;;;;;6176980;28;20039;-41
2022/07/11 10:35:24;;;;;;;0.28;0.20;;;24.80;46.90;;;;;;6175867;28;20056;-42
2022/07/11 10:38:25;;;;;;;0.17;0.15;;;25.00;47.10;;;;;;6184476;28;20044;-46
2022/07/11 10:41:27;;;;;;;0.30;0.20;;;24.90;46.90;;;;;;6187347;28;20988;-46
2022/07/11 10:44:49;;;;;;;0.32;0.17;;;24.90;46.90;;;;;;6191090;28;20955;-43
2022/07/11 10:47:50;;;;;;;0.20;0.10;;;24.90;46.90;;;;;;6189163;28;20049;-44
2022/07/11 10:51:10;;;;;;;0.22;0.10;;;24.90;46.90;;;;;;6215103;28;20082;-41
2022/07/11 10:54:19;;;;;;;0.20;0.15;;;25.10;46.90;;;;;;6208756;28;20097;-44
2022/07/11 10:57:27;;;;;;;0.20;0.20;;;24.90;46.80;;;;;;6238068;28;20052;-47
2022/07/11 11:00:31;;;;;;;0.32;0.20;;;24.90;46.80;;;;;;6227313;28;20044;-44
2022/07/11 11:03:32;;;;;;;0.20;0.20;;;24.90;46.90;;;;;;6241001;28;21459;-42
2022/07/11 11:06:56;;;;;;;0.20;0.20;;;24.90;46.90;;;;;;6218142;28;20054;-48
2022/07/11 11:10:00;;;;;;;4.22;0.30;;;24.90;46.90;;;;;;6229402;28;20044;-44
2022/07/11 11:13:16;;;;;;;0.25;0.20;;;24.90;46.90;;;;;;6230651;28;20047;-42
2022/07/11 11:16:19;;;;;;;1.00;0.20;;;24.90;46.90;;;;;;6210164;28;20047;-42
2022/07/11 11:19:48;;;;;;;0.10;0.10;;;24.90;46.90;;;;;;6239634;28;20095;-42
2022/07/11 11:23:14;;;;;;;1.20;0.32;;;24.90;47.00;;;;;;6230451;28;20052;-44
2022/07/11 11:26:17;;;;;;;0.40;0.30;;;24.90;47.10;;;;;;6222532;28;20125;-44
2022/07/11 11:29:22;;;;;;;0.28;0.10;;;24.90;47.20;;;;;;6232201;28;20055;-45
2022/07/11 11:32:30;;;;;;;0.20;0.20;;;25.00;47.30;;;;;;6223769;28;20123;-42
2022/07/11 11:35:32;;;;;;;1.55;0.10;;;25.00;47.40;;;;;;6224807;28;20174;-42
2022/07/11 11:38:35;;;;;;;0.38;0.30;;;25.00;47.50;;;;;;6238310;28;20308;-42
2022/07/11 11:41:37;;;;;;;0.15;0.10;;;25.00;47.60;;;;;;6214919;28;20044;-43
2022/07/11 11:44:56;;;;;;;0.50;0.10;;;25.00;47.60;;;;;;6213994;28;20062;-45
2022/07/11 11:47:57;;;;;;;0.35;0.20;;;25.00;47.70;;;;;;6165124;28;20055;-43
2022/07/11 11:51:02;;;;;;;1.08;0.20;;;25.00;47.70;;;;;;6190987;28;20074;-48
2022/07/11 11:54:04;;;;;;;0.30;0.20;;;25.00;47.70;;;;;;6180969;28;20051;-41
2022/07/11 11:57:08;;;;;;;0.10;0.10;;;24.90;47.70;;;;;;6191332;28;20055;-42
2022/07/11 12:00:21;;;;;;;0.20;0.20;;;25.00;47.80;;;;;;6155595;28;20047;-44
2022/07/11 12:03:54;;;;;;;0.30;0.20;;;24.90;47.80;;;;;;6121214;28;20036;-42
2022/07/11 12:06:55;;;;;;;0.20;0.20;;;25.00;47.90;;;;;;6108436;28;20044;-42
2022/07/11 12:09:59;;;;;;;0.57;0.35;;;25.00;48.00;;;;;;6129648;28;20040;-45
2022/07/11 12:13:01;;;;;;;0.20;0.20;;;25.00;48.00;;;;;;6129912;28;20043;-42
2022/07/11 12:19:33;;;;;;;0.32;0.20;;;25.10;48.20;;;;;;6157393;28;20094;-43
2022/07/11 12:22:43;;;;;;;0.38;0.20;;;25.30;48.40;;;;;;6134707;28;20052;-44
2022/07/11 12:25:45;;;;;;;0.30;0.20;;;25.00;48.20;;;;;;6160922;28;20162;-42
2022/07/11 12:29:04;;;;;;;0.30;0.20;;;25.00;48.20;;;;;;6113931;28;22025;-42
2022/07/11 12:32:12;;;;;;;0.30;0.10;;;24.80;48.10;;;;;;6146500;28;21155;-42
2022/07/11 12:35:14;;;;;;;0.13;0.10;;;25.00;48.20;;;;;;6153448;28;21038;-41
2022/07/11 12:38:15;;;;;;;0.20;0.10;;;25.00;48.20;;;;;;6178972;28;20046;-41
2022/07/11 12:41:18;;;;;;;0.13;0.10;;;25.10;48.30;;;;;;6142312;28;20044;-43
2022/07/11 12:47:40;;;;;;;0.47;0.20;;;25.10;48.20;;;;;;6147707;28;20046;-45
2022/07/11 12:50:43;;;;;;;0.38;0.15;;;25.10;48.30;;;;;;6171163;28;20040;-45
2022/07/11 12:53:45;;;;;;;0.45;0.10;;;25.10;48.20;;;;;;6152335;28;21326;-42
2022/07/11 12:56:57;;;;;;;1.27;0.28;;;25.10;48.30;;;;;;6154743;28;23354;-42
2022/07/11 13:00:15;;;;;;;0.75;0.10;;;25.20;48.40;;;;;;6158082;28;20046;-46
2022/07/11 13:03:28;;;;;;;0.20;0.10;;;25.00;48.40;;;;;;6166720;27;20044;-46
2022/07/11 13:09:58;;;;;;;0.20;0.20;;;25.00;48.40;;;;;;6140098;28;20125;-42
2022/07/11 13:13:01;;;;;;;0.30;0.10;;;25.10;48.40;;;;;;6165577;28;20124;-41
2022/07/11 13:16:04;;;;;;;0.57;0.17;;;25.10;48.40;;;;;;6157075;28;20071;-43
2022/07/11 13:19:06;;;;;;;0.52;0.20;;;25.20;48.50;;;;;;6175941;28;20055;-41
2022/07/11 13:22:08;;;;;;;0.75;0.22;;;25.10;48.40;;;;;;6165577;28;21865;-50
2022/07/11 13:25:11;;;;;;;0.10;0.10;;;25.10;48.40;;;;;;6175097;28;20054;-41
2022/07/11 13:28:13;;;;;;;0.38;0.20;;;25.10;48.30;;;;;;6144832;28;20087;-43
2022/07/11 13:31:16;;;;;;;0.30;0.13;;;25.20;48.30;;;;;;6153436;28;20079;-42
2022/07/11 13:34:18;;;;;;;1.10;0.10;;;25.20;48.20;;;;;;6139819;28;20175;-42
2022/07/11 13:37:20;;;;;;;0.65;0.15;;;25.20;48.20;;;;;;6168259;28;20063;-41
2022/07/11 13:40:23;;;;;;;0.22;0.20;;;25.30;48.20;;;;;;6152373;28;20126;-43
2022/07/11 13:43:24;;;;;;;0.52;0.20;;;25.30;48.20;;;;;;6133450;28;20182;-42
2022/07/11 13:46:27;;;;;;;1.45;0.15;;;25.30;48.20;;;;;;6156801;28;20059;-42
2022/07/11 13:49:31;;;;;;;0.40;0.20;;;25.30;48.00;;;;;;6156490;28;20682;-42
2022/07/11 13:52:33;;;;;;;0.20;0.15;;;25.30;47.90;;;;;;6155891;27;20188;-46
2022/07/11 13:55:35;;;;;;;0.10;0.10;;;25.30;47.80;;;;;;6172719;28;20060;-41
2022/07/11 13:58:41;;;;;;;0.13;0.13;;;25.30;47.80;;;;;;6189089;28;20036;-45
2022/07/11 14:01:44;;;;;;;0.60;0.15;;;25.30;47.90;;;;;;6137231;28;20114;-44
2022/07/11 14:04:46;;;;;;;0.15;0.10;;;25.30;48.00;;;;;;6150376;28;20047;-42
2022/07/11 14:07:48;;;;;;;0.20;0.15;;;25.30;48.00;;;;;;6154425;28;20051;-43
2022/07/11 14:10:51;;;;;;;0.10;0.10;;;25.30;48.00;;;;;;6150927;28;20235;-45
2022/07/11 14:13:52;;;;;;;0.20;0.17;;;25.30;48.00;;;;;;6153010;28;20052;-43
2022/07/11 14:16:55;;;;;;;0.10;0.10;;;25.40;48.00;;;;;;6131187;28;20232;-41
2022/07/11 14:19:57;;;;;;;0.10;0.10;;;25.30;47.80;;;;;;6152894;28;20066;-43
2022/07/11 14:22:58;;;;;;;0.20;0.10;;;25.40;47.80;;;;;;6173847;28;20048;-43
2022/07/11 14:26:00;;;;;;;0.10;0.10;;;25.30;47.60;;;;;;6178853;28;20155;-43
2022/07/11 14:29:03;;;;;;;0.03;0.03;;;25.30;47.60;;;;;;6145816;28;20044;-42
2022/07/11 14:32:08;;;;;;;0.20;0.20;;;25.30;47.50;;;;;;6129401;28;20090;-42
2022/07/11 14:35:10;;;;;;;0.35;0.20;;;25.30;47.50;;;;;;6113986;28;22431;-41
2022/07/11 14:38:12;;;;;;;0.30;0.10;;;25.40;47.60;;;;;;6143098;28;20090;-44
2022/07/11 14:41:15;;;;;;;0.20;0.20;;;25.40;47.40;;;;;;6140868;28;20170;-44
2022/07/11 14:44:17;;;;;;;0.20;0.20;;;25.40;47.30;;;;;;6122732;28;20055;-42
2022/07/11 14:47:19;;;;;;;0.20;0.20;;;25.40;47.30;;;;;;6136213;28;20039;-41
2022/07/11 14:50:21;;;;;;;0.35;0.20;;;25.40;47.20;;;;;;6150394;28;20043;-43
2022/07/11 14:53:23;;;;;;;0.40;0.20;;;25.40;47.20;;;;;;6150652;28;20044;-41
2022/07/11 14:56:24;;;;;;;0.10;0.10;;;25.40;47.20;;;;;;6147903;28;20097;-41
2022/07/11 14:59:35;;;;;;;0.40;0.10;;;25.40;47.10;;;;;;6148935;28;21342;-50
2022/07/11 15:05:54;;;;;;;0.60;0.10;;;25.40;47.00;;;;;;6147659;28;23303;-43
2022/07/11 15:15:25;;;;;;;0.10;0.10;;;25.40;46.80;;;;;;6158656;28;20044;-42
2022/07/11 15:18:27;;;;;;;0.73;0.10;;;25.40;46.80;;;;;;6170748;28;20075;-42
2022/07/11 15:21:29;;;;;;;0.10;0.10;;;25.40;46.70;;;;;;6171851;28;20113;-42
2022/07/11 15:24:31;;;;;;;0.10;0.10;;;25.40;46.60;;;;;;6177323;28;20950;-44
2022/07/11 15:27:33;;;;;;;0.20;0.10;;;25.40;46.60;;;;;;6178495;28;20170;-42
2022/07/11 15:30:35;;;;;;;0.35;0.20;;;25.50;46.90;;;;;;6164117;28;20039;-42
2022/07/11 15:33:37;;;;;;;0.15;0.10;;;25.40;46.80;;;;;;6163550;28;20165;-42
2022/07/11 15:36:39;;;;;;;0.35;0.10;;;25.50;46.90;;;;;;6181287;28;21248;-42
2022/07/11 15:39:40;;;;;;;0.10;0.10;;;25.50;47.00;;;;;;6174626;28;20150;-48
2022/07/11 15:42:42;;;;;;;0.22;0.15;;;25.50;47.10;;;;;;6188225;28;20122;-42
2022/07/11 15:45:44;;;;;;;0.20;0.20;;;25.50;47.10;;;;;;6196728;28;20161;-43
2022/07/11 15:48:46;;;;;;;0.52;0.20;;;25.50;47.00;;;;;;6196592;28;20044;-46
2022/07/11 15:51:47;;;;;;;0.05;0.03;;;25.40;46.90;;;;;;6195378;28;20035;-42
2022/07/11 15:54:52;;;;;;;1.17;0.17;;;25.50;46.90;;;;;;6206292;28;20071;-42
2022/07/11 15:57:54;;;;;;;0.10;0.10;;;25.50;46.90;;;;;;6198412;28;20047;-41
2022/07/11 16:00:56;;;;;;;0.10;0.10;;;25.50;46.80;;;;;;6210496;28;20162;-43
2022/07/11 16:03:59;;;;;;;0.10;0.10;;;25.50;46.70;;;;;;6191436;28;20047;-47
2022/07/11 16:07:01;;;;;;;0.10;0.10;;;25.50;46.70;;;;;;6192366;28;21820;-43
2022/07/11 16:10:04;;;;;;;0.10;0.10;;;25.60;46.70;;;;;;6200297;28;20044;-42
2022/07/11 16:13:07;;;;;;;0.75;0.10;;;25.70;46.60;;;;;;6186263;28;21890;-41
2022/07/11 16:16:08;;;;;;;0.30;0.10;;;25.60;46.50;;;;;;6206591;28;20043;-42
2022/07/11 16:19:11;;;;;;;0.10;0.10;;;25.60;46.50;;;;;;6209522;28;20146;-42
2022/07/11 16:22:12;;;;;;;0.30;0.10;;;25.70;46.60;;;;;;6219864;28;20087;-42
2022/07/11 16:25:16;;;;;;;0.35;0.10;;;25.70;46.60;;;;;;6226388;28;20182;-42